sensor_id;sensor_type;location;lat;lon;timestamp;temperature;humidity
52073;DHT22;38074;51.232;6.826;2022-12-18T00:05:21;22.10;30.20
52073;DHT22;38074;51.232;6.826;2022-12-18T00:12:36;22.10;30.40
52073;DHT22;38074;51.232;6.826;2022-12-18T00:19:52;22.10;30.40
52073;DHT22;38074;51.232;6.826;2022-12-18T00:27:07;22.10;30.40
52073;DHT22;38074;51.232;6.826;2022-12-18T00:34:23;22.10;30.20
52073;DHT22;38074;51.232;6.826;2022-12-18T00:41:39;22.10;30.00
52073;DHT22;38074;51.232;6.826;2022-12-18T00:49:17;22.10;30.00
52073;DHT22;38074;51.232;6.826;2022-12-18T00:56:36;22.10;30.60
52073;DHT22;38074;51.232;6.826;2022-12-18T01:03:52;22.10;30.00
52073;DHT22;38074;51.232;6.826;2022-12-18T01:11:13;22.10;30.00
52073;DHT22;38074;51.232;6.826;2022-12-18T01:18:28;22.10;29.90
52073;DHT22;38074;51.232;6.826;2022-12-18T01:25:44;22.00;29.80
52073;DHT22;38074;51.232;6.826;2022-12-18T01:32:59;22.00;30.00
52073;DHT22;38074;51.232;6.826;2022-12-18T01:40:15;22.00;30.00
52073;DHT22;38074;51.232;6.826;2022-12-18T01:47:44;22.00;29.70
52073;DHT22;38074;51.232;6.826;2022-12-18T01:55:02;22.00;29.60
52073;DHT22;38074;51.232;6.826;2022-12-18T02:02:20;22.00;29.90
52073;DHT22;38074;51.232;6.826;2022-12-18T02:09:50;21.90;29.90
52073;DHT22;38074;51.232;6.826;2022-12-18T02:17:23;21.90;29.70
52073;DHT22;38074;51.232;6.826;2022-12-18T02:24:46;21.90;29.60
52073;DHT22;38074;51.232;6.826;2022-12-18T02:32:07;21.90;29.50
52073;DHT22;38074;51.232;6.826;2022-12-18T02:39:26;21.90;29.50
52073;DHT22;38074;51.232;6.826;2022-12-18T02:46:50;21.90;29.40
52073;DHT22;38074;51.232;6.826;2022-12-18T02:54:23;21.90;29.30
52073;DHT22;38074;51.232;6.826;2022-12-18T03:01:54;21.90;29.20
52073;DHT22;38074;51.232;6.826;2022-12-18T03:09:16;21.90;29.40
52073;DHT22;38074;51.232;6.826;2022-12-18T03:16:34;21.90;29.40
52073;DHT22;38074;51.232;6.826;2022-12-18T03:23:52;21.90;29.40
52073;DHT22;38074;51.232;6.826;2022-12-18T03:31:10;21.80;29.30
52073;DHT22;38074;51.232;6.826;2022-12-18T03:38:26;21.80;29.20
52073;DHT22;38074;51.232;6.826;2022-12-18T03:45:50;21.80;29.20
52073;DHT22;38074;51.232;6.826;2022-12-18T04:00:52;21.80;28.10
52073;DHT22;38074;51.232;6.826;2022-12-18T04:08:09;21.90;28.40
52073;DHT22;38074;51.232;6.826;2022-12-18T04:15:24;21.90;28.40
52073;DHT22;38074;51.232;6.826;2022-12-18T04:22:40;22.00;28.40
52073;DHT22;38074;51.232;6.826;2022-12-18T04:29:55;22.00;28.40
52073;DHT22;38074;51.232;6.826;2022-12-18T04:37:11;22.00;28.40
52073;DHT22;38074;51.232;6.826;2022-12-18T04:44:26;22.00;28.30
52073;DHT22;38074;51.232;6.826;2022-12-18T04:51:42;22.10;28.40
52073;DHT22;38074;51.232;6.826;2022-12-18T04:58:58;22.10;28.40
52073;DHT22;38074;51.232;6.826;2022-12-18T05:06:13;22.10;28.40
52073;DHT22;38074;51.232;6.826;2022-12-18T05:13:29;22.20;28.50
52073;DHT22;38074;51.232;6.826;2022-12-18T05:20:45;22.20;28.60
52073;DHT22;38074;51.232;6.826;2022-12-18T05:28:01;22.20;28.70
52073;DHT22;38074;51.232;6.826;2022-12-18T05:35:16;22.30;28.70
52073;DHT22;38074;51.232;6.826;2022-12-18T05:42:32;22.30;28.80
52073;DHT22;38074;51.232;6.826;2022-12-18T05:49:47;22.30;28.80
52073;DHT22;38074;51.232;6.826;2022-12-18T05:57:03;22.30;28.80
52073;DHT22;38074;51.232;6.826;2022-12-18T06:04:18;22.30;28.90
52073;DHT22;38074;51.232;6.826;2022-12-18T06:11:35;22.30;28.90
52073;DHT22;38074;51.232;6.826;2022-12-18T06:18:51;22.30;28.90
52073;DHT22;38074;51.232;6.826;2022-12-18T06:26:08;22.30;28.90
52073;DHT22;38074;51.232;6.826;2022-12-18T06:33:26;22.30;29.00
52073;DHT22;38074;51.232;6.826;2022-12-18T06:40:43;22.30;29.00
52073;DHT22;38074;51.232;6.826;2022-12-18T06:47:58;22.30;29.00
52073;DHT22;38074;51.232;6.826;2022-12-18T06:55:14;22.30;29.10
52073;DHT22;38074;51.232;6.826;2022-12-18T07:02:29;22.30;29.20
52073;DHT22;38074;51.232;6.826;2022-12-18T07:09:45;22.30;29.30
52073;DHT22;38074;51.232;6.826;2022-12-18T07:17:00;22.30;29.30
52073;DHT22;38074;51.232;6.826;2022-12-18T07:24:16;22.40;29.80
52073;DHT22;38074;51.232;6.826;2022-12-18T07:31:32;22.40;29.70
52073;DHT22;38074;51.232;6.826;2022-12-18T07:38:48;22.40;29.90
52073;DHT22;38074;51.232;6.826;2022-12-18T07:46:05;22.40;30.30
52073;DHT22;38074;51.232;6.826;2022-12-18T07:53:21;22.50;30.30
52073;DHT22;38074;51.232;6.826;2022-12-18T08:00:36;22.50;30.40
52073;DHT22;38074;51.232;6.826;2022-12-18T08:07:53;22.50;30.60
52073;DHT22;38074;51.232;6.826;2022-12-18T08:15:09;22.60;30.60
52073;DHT22;38074;51.232;6.826;2022-12-18T08:22:24;22.60;30.90
52073;DHT22;38074;51.232;6.826;2022-12-18T08:29:40;22.70;31.20
52073;DHT22;38074;51.232;6.826;2022-12-18T08:36:55;22.70;31.40
52073;DHT22;38074;51.232;6.826;2022-12-18T08:44:11;22.70;31.50
52073;DHT22;38074;51.232;6.826;2022-12-18T08:51:45;22.70;31.40
52073;DHT22;38074;51.232;6.826;2022-12-18T08:59:01;22.70;31.50
52073;DHT22;38074;51.232;6.826;2022-12-18T09:06:18;22.70;31.70
52073;DHT22;38074;51.232;6.826;2022-12-18T09:13:33;22.70;31.90
52073;DHT22;38074;51.232;6.826;2022-12-18T09:20:49;22.70;32.10
52073;DHT22;38074;51.232;6.826;2022-12-18T09:28:13;22.70;32.20
52073;DHT22;38074;51.232;6.826;2022-12-18T09:35:29;22.60;32.30
52073;DHT22;38074;51.232;6.826;2022-12-18T09:42:50;22.80;32.30
52073;DHT22;38074;51.232;6.826;2022-12-18T09:57:36;22.60;32.00
52073;DHT22;38074;51.232;6.826;2022-12-18T10:12:25;22.50;31.20
52073;DHT22;38074;51.232;6.826;2022-12-18T10:27:17;22.50;31.70
52073;DHT22;38074;51.232;6.826;2022-12-18T10:34:33;22.50;31.60
52073;DHT22;38074;51.232;6.826;2022-12-18T10:41:49;22.50;31.60
52073;DHT22;38074;51.232;6.826;2022-12-18T10:49:04;22.50;31.60
52073;DHT22;38074;51.232;6.826;2022-12-18T10:56:20;22.50;31.70
52073;DHT22;38074;51.232;6.826;2022-12-18T11:03:37;22.50;31.60
52073;DHT22;38074;51.232;6.826;2022-12-18T11:10:53;22.60;31.80
52073;DHT22;38074;51.232;6.826;2022-12-18T11:18:21;22.60;31.80
52073;DHT22;38074;51.232;6.826;2022-12-18T11:25:37;22.60;32.00
52073;DHT22;38074;51.232;6.826;2022-12-18T11:33:01;22.60;32.00
52073;DHT22;38074;51.232;6.826;2022-12-18T11:40:30;22.80;32.20
52073;DHT22;38074;51.232;6.826;2022-12-18T11:48:04;22.80;32.40
52073;DHT22;38074;51.232;6.826;2022-12-18T11:56:00;22.90;33.00
52073;DHT22;38074;51.232;6.826;2022-12-18T12:18:34;23.00;34.30
52073;DHT22;38074;51.232;6.826;2022-12-18T12:26:19;23.00;34.90
52073;DHT22;38074;51.232;6.826;2022-12-18T12:34:01;23.00;34.60
52073;DHT22;38074;51.232;6.826;2022-12-18T12:41:24;23.00;34.20
52073;DHT22;38074;51.232;6.826;2022-12-18T12:49:02;22.90;34.00
52073;DHT22;38074;51.232;6.826;2022-12-18T12:56:20;22.90;33.80
52073;DHT22;38074;51.232;6.826;2022-12-18T13:11:38;22.80;33.40
52073;DHT22;38074;51.232;6.826;2022-12-18T13:19:22;22.80;33.70
52073;DHT22;38074;51.232;6.826;2022-12-18T13:26:38;22.90;33.70
52073;DHT22;38074;51.232;6.826;2022-12-18T13:41:27;22.70;33.10
52073;DHT22;38074;51.232;6.826;2022-12-18T13:48:52;22.60;33.10
52073;DHT22;38074;51.232;6.826;2022-12-18T13:56:09;22.60;33.10
52073;DHT22;38074;51.232;6.826;2022-12-18T14:03:29;22.70;33.20
52073;DHT22;38074;51.232;6.826;2022-12-18T14:10:46;22.70;33.10
52073;DHT22;38074;51.232;6.826;2022-12-18T14:18:25;22.80;33.00
52073;DHT22;38074;51.232;6.826;2022-12-18T14:25:46;22.80;32.80
52073;DHT22;38074;51.232;6.826;2022-12-18T14:40:23;22.90;32.80
52073;DHT22;38074;51.232;6.826;2022-12-18T14:47:43;22.80;32.50
52073;DHT22;38074;51.232;6.826;2022-12-18T14:54:58;22.80;32.40
52073;DHT22;38074;51.232;6.826;2022-12-18T15:09:35;22.90;32.40
52073;DHT22;38074;51.232;6.826;2022-12-18T15:16:54;22.90;33.10
52073;DHT22;38074;51.232;6.826;2022-12-18T15:24:30;22.90;32.40
52073;DHT22;38074;51.232;6.826;2022-12-18T15:32:02;22.90;32.20
52073;DHT22;38074;51.232;6.826;2022-12-18T15:39:18;22.90;32.10
52073;DHT22;38074;51.232;6.826;2022-12-18T15:46:34;22.80;32.20
52073;DHT22;38074;51.232;6.826;2022-12-18T15:53:52;22.70;32.10
52073;DHT22;38074;51.232;6.826;2022-12-18T16:01:09;22.80;32.20
52073;DHT22;38074;51.232;6.826;2022-12-18T16:08:25;22.80;31.90
52073;DHT22;38074;51.232;6.826;2022-12-18T16:15:41;22.80;31.70
52073;DHT22;38074;51.232;6.826;2022-12-18T16:22:56;22.80;31.50
52073;DHT22;38074;51.232;6.826;2022-12-18T16:30:16;22.70;31.30
52073;DHT22;38074;51.232;6.826;2022-12-18T16:37:32;22.70;31.20
52073;DHT22;38074;51.232;6.826;2022-12-18T16:44:48;22.70;31.40
52073;DHT22;38074;51.232;6.826;2022-12-18T16:52:05;22.80;31.40
52073;DHT22;38074;51.232;6.826;2022-12-18T16:59:20;22.80;31.40
52073;DHT22;38074;51.232;6.826;2022-12-18T17:06:41;22.70;31.20
52073;DHT22;38074;51.232;6.826;2022-12-18T17:13:57;22.70;31.20
52073;DHT22;38074;51.232;6.826;2022-12-18T17:21:13;22.90;31.60
52073;DHT22;38074;51.232;6.826;2022-12-18T17:28:29;23.30;32.00
52073;DHT22;38074;51.232;6.826;2022-12-18T17:35:45;23.80;32.70
52073;DHT22;38074;51.232;6.826;2022-12-18T17:43:00;24.40;33.10
52073;DHT22;38074;51.232;6.826;2022-12-18T17:50:16;24.80;33.40
52073;DHT22;38074;51.232;6.826;2022-12-18T17:57:31;25.20;33.90
52073;DHT22;38074;51.232;6.826;2022-12-18T18:04:47;25.50;34.30
52073;DHT22;38074;51.232;6.826;2022-12-18T18:12:02;25.80;34.70
52073;DHT22;38074;51.232;6.826;2022-12-18T18:19:37;26.00;34.90
52073;DHT22;38074;51.232;6.826;2022-12-18T18:26:52;26.20;35.10
52073;DHT22;38074;51.232;6.826;2022-12-18T18:34:14;26.40;35.30
52073;DHT22;38074;51.232;6.826;2022-12-18T18:41:30;26.60;35.40
52073;DHT22;38074;51.232;6.826;2022-12-18T18:48:45;26.80;35.50
52073;DHT22;38074;51.232;6.826;2022-12-18T18:56:01;26.90;35.50
52073;DHT22;38074;51.232;6.826;2022-12-18T19:03:17;27.00;35.40
52073;DHT22;38074;51.232;6.826;2022-12-18T19:10:39;27.10;35.30
52073;DHT22;38074;51.232;6.826;2022-12-18T19:17:54;27.20;35.20
52073;DHT22;38074;51.232;6.826;2022-12-18T19:25:10;27.30;35.20
52073;DHT22;38074;51.232;6.826;2022-12-18T19:32:25;27.40;35.00
52073;DHT22;38074;51.232;6.826;2022-12-18T19:39:41;27.50;34.90
52073;DHT22;38074;51.232;6.826;2022-12-18T19:46:56;27.60;34.70
52073;DHT22;38074;51.232;6.826;2022-12-18T19:54:12;27.90;35.00
52073;DHT22;38074;51.232;6.826;2022-12-18T20:01:30;28.10;34.80
52073;DHT22;38074;51.232;6.826;2022-12-18T20:08:46;28.10;34.50
52073;DHT22;38074;51.232;6.826;2022-12-18T20:16:02;28.20;34.50
52073;DHT22;38074;51.232;6.826;2022-12-18T20:23:18;28.20;34.30
52073;DHT22;38074;51.232;6.826;2022-12-18T20:30:33;28.20;34.10
52073;DHT22;38074;51.232;6.826;2022-12-18T20:37:49;28.30;34.00
52073;DHT22;38074;51.232;6.826;2022-12-18T20:45:05;28.30;33.90
52073;DHT22;38074;51.232;6.826;2022-12-18T20:52:20;28.50;34.10
52073;DHT22;38074;51.232;6.826;2022-12-18T20:59:36;28.70;34.80
52073;DHT22;38074;51.232;6.826;2022-12-18T21:06:51;28.70;34.20
52073;DHT22;38074;51.232;6.826;2022-12-18T21:14:15;28.40;33.90
52073;DHT22;38074;51.232;6.826;2022-12-18T21:21:31;28.20;33.60
52073;DHT22;38074;51.232;6.826;2022-12-18T21:28:47;28.00;33.50
52073;DHT22;38074;51.232;6.826;2022-12-18T21:36:07;27.80;33.30
52073;DHT22;38074;51.232;6.826;2022-12-18T21:43:22;27.50;33.10
52073;DHT22;38074;51.232;6.826;2022-12-18T21:50:57;27.30;33.00
52073;DHT22;38074;51.232;6.826;2022-12-18T21:58:12;27.20;32.90
52073;DHT22;38074;51.232;6.826;2022-12-18T22:05:28;27.10;32.80
52073;DHT22;38074;51.232;6.826;2022-12-18T22:12:43;26.90;32.60
52073;DHT22;38074;51.232;6.826;2022-12-18T22:19:59;26.70;32.50
52073;DHT22;38074;51.232;6.826;2022-12-18T22:27:15;26.60;32.30
52073;DHT22;38074;51.232;6.826;2022-12-18T22:34:31;26.50;32.10
52073;DHT22;38074;51.232;6.826;2022-12-18T22:41:47;26.40;32.00
52073;DHT22;38074;51.232;6.826;2022-12-18T22:49:03;26.20;31.80
52073;DHT22;38074;51.232;6.826;2022-12-18T22:56:18;26.10;31.70
52073;DHT22;38074;51.232;6.826;2022-12-18T23:03:34;26.00;31.70
52073;DHT22;38074;51.232;6.826;2022-12-18T23:10:51;25.90;31.50
52073;DHT22;38074;51.232;6.826;2022-12-18T23:18:07;25.80;31.40
52073;DHT22;38074;51.232;6.826;2022-12-18T23:25:23;25.70;31.30
52073;DHT22;38074;51.232;6.826;2022-12-18T23:32:38;25.60;31.20
52073;DHT22;38074;51.232;6.826;2022-12-18T23:39:54;25.50;31.10
52073;DHT22;38074;51.232;6.826;2022-12-18T23:47:09;25.40;31.00
52073;DHT22;38074;51.232;6.826;2022-12-18T23:54:25;25.40;30.90
